Time;durP1;ratioP1;P1;durP2;ratioP2;P2;SDS_P1;SDS_P2;PMS_P1;PMS_P2;Temp;Humidity;BMP_temperature;BMP_pressure;BME280_temperature;BME280_humidity;BME280_pressure;Samples;Min_cycle;Max_cycle;Signal;HPM_P1;HPM_P2
2021/09/21 05:04:39;;;;;;;8.95;5.50;;;;;;;7.51;70.20;99310.56;4114517;28;20053;-67
2021/09/21 05:07:04;;;;;;;11.98;7.20;;;;;;;7.56;70.54;99316.06;5028932;28;21842;-67
2021/09/21 05:09:29;;;;;;;15.05;8.05;;;;;;;7.59;70.27;99326.50;5029733;28;20155;-67
2021/09/21 05:11:55;;;;;;;11.80;7.78;;;;;;;7.63;70.49;99326.78;5012374;28;20359;-67
2021/09/21 05:14:20;;;;;;;11.82;8.05;;;;;;;7.66;70.47;99337.19;5022410;28;20030;-67
2021/09/21 05:16:46;;;;;;;9.77;6.72;;;;;;;7.70;70.75;99332.88;5011382;28;20029;-66
2021/09/21 05:19:11;;;;;;;13.85;8.20;;;;;;;7.71;70.62;99333.72;5011855;28;20030;-67
2021/09/21 05:21:41;;;;;;;12.18;7.72;;;;;;;7.70;70.75;99332.88;5011736;28;20028;-67
2021/09/21 05:24:07;;;;;;;16.63;9.25;;;;;;;7.70;70.96;99327.41;5011690;28;20030;-67
2021/09/21 05:26:33;;;;;;;15.15;9.80;;;;;;;7.71;71.66;99337.25;5020764;28;20029;-67
2021/09/21 05:28:58;;;;;;;18.15;11.15;;;;;;;7.69;71.48;99333.97;5011551;28;20026;-67
2021/09/21 05:31:23;;;;;;;18.58;10.00;;;;;;;7.70;71.55;99343.81;5011332;28;20382;-67
2021/09/21 05:33:49;;;;;;;14.23;9.30;;;;;;;7.71;71.69;99345.44;5007157;28;20029;-67
2021/09/21 05:36:14;;;;;;;18.58;10.70;;;;;;;7.72;71.61;99336.19;4993115;28;20038;-66
2021/09/21 05:38:40;;;;;;;16.33;11.00;;;;;;;7.78;71.62;99338.97;5011718;28;20029;-68
2021/09/21 05:41:05;;;;;;;19.73;11.70;;;;;;;7.82;71.58;99334.66;5018883;28;20053;-67
2021/09/21 05:43:31;;;;;;;21.35;12.02;;;;;;;7.82;71.62;99323.72;5012446;28;20057;-67
2021/09/21 05:45:56;;;;;;;17.85;11.00;;;;;;;7.83;72.08;99328.91;5031010;28;20025;-69
2021/09/21 05:48:22;;;;;;;19.83;11.73;;;;;;;7.86;71.92;99327.59;5011742;28;20037;-68
2021/09/21 05:50:47;;;;;;;16.33;10.35;;;;;;;7.88;71.60;99330.91;5023049;28;20127;-70
2021/09/21 05:53:12;;;;;;;26.10;11.18;;;;;;;7.89;71.97;99332.56;5015201;28;20025;-67
2021/09/21 05:55:38;;;;;;;15.50;9.48;;;;;;;7.92;71.87;99325.75;5023708;28;20037;-66
2021/09/21 05:58:03;;;;;;;19.40;10.23;;;;;;;7.97;72.08;99337.53;5018020;28;20437;-67
2021/09/21 06:00:29;;;;;;;31.33;21.35;;;;;;;8.11;71.56;99345.31;5009916;28;20433;-67
2021/09/21 06:02:54;;;;;;;20.85;12.95;;;;;;;8.26;71.71;99350.09;5016349;28;20026;-67
2021/09/21 06:05:19;;;;;;;16.52;9.77;;;;;;;8.38;71.89;99347.19;5010792;28;20056;-66
2021/09/21 06:07:50;;;;;;;20.02;10.55;;;;;;;8.42;71.70;99357.38;5010505;28;20181;-66
2021/09/21 06:10:20;;;;;;;15.85;8.77;;;;;;;8.55;71.98;99367.09;5011162;28;20030;-67
2021/09/21 06:12:45;;;;;;;17.65;10.95;;;;;;;8.62;71.34;99373.16;5008981;28;20026;-66
2021/09/21 06:15:13;;;;;;;22.95;12.70;;;;;;;8.72;71.56;99371.59;5002805;28;20080;-67
2021/09/21 06:17:39;;;;;;;34.53;15.63;;;;;;;8.84;72.31;99385.09;5008397;28;20030;-66
2021/09/21 06:20:05;;;;;;;22.48;13.13;;;;;;;8.91;71.66;99388.44;5027548;28;20040;-66
2021/09/21 06:22:31;;;;;;;23.20;13.93;;;;;;;8.96;71.65;99390.38;5017403;28;20052;-67
2021/09/21 06:24:57;;;;;;;37.40;18.85;;;;;;;8.99;71.09;99384.38;5014478;28;20108;-67
2021/09/21 06:27:22;;;;;;;35.85;16.67;;;;;;;9.01;71.72;99385.75;5011251;28;20029;-67
2021/09/21 06:29:48;;;;;;;26.63;14.02;;;;;;;8.99;71.87;99387.09;5011842;28;20034;-67
2021/09/21 06:32:13;;;;;;;21.85;13.25;;;;;;;9.01;71.57;99385.75;5010953;28;20030;-69
2021/09/21 06:34:39;;;;;;;17.30;11.27;;;;;;;9.06;72.05;99385.78;5021569;28;20029;-68
2021/09/21 06:37:05;;;;;;;18.83;12.43;;;;;;;9.13;71.56;99379.25;5017418;28;20048;-68
2021/09/21 06:39:31;;;;;;;23.00;12.65;;;;;;;9.22;72.14;99383.16;5011102;28;20026;-67
2021/09/21 06:41:57;;;;;;;47.63;16.55;;;;;;;9.25;71.60;99390.84;5016864;28;20547;-68
2021/09/21 06:44:22;;;;;;;42.38;18.95;;;;;;;9.25;71.55;99388.09;5010748;28;20096;-67
2021/09/21 06:46:47;;;;;;;31.95;13.75;;;;;;;9.28;71.23;99381.25;5008518;28;20026;-68
2021/09/21 06:49:13;;;;;;;18.80;9.52;;;;;;;9.30;71.64;99377.19;5007874;28;20390;-68
2021/09/21 06:51:38;;;;;;;16.33;9.98;;;;;;;9.29;72.00;99377.44;5010237;28;20383;-67
2021/09/21 06:54:04;;;;;;;22.40;11.07;;;;;;;9.34;71.36;99377.47;5010137;28;20049;-67
2021/09/21 06:56:29;;;;;;;21.63;12.13;;;;;;;9.37;71.64;99375.00;5009843;28;20164;-67
2021/09/21 06:58:56;;;;;;;17.30;9.85;;;;;;;9.42;72.15;99374.22;5010123;28;20037;-67
2021/09/21 07:01:23;;;;;;;20.63;10.55;;;;;;;9.45;72.00;99373.69;5010073;28;20068;-69
2021/09/21 07:03:49;;;;;;;24.13;13.68;;;;;;;9.52;72.49;99379.78;5009925;28;20421;-67
2021/09/21 07:06:14;;;;;;;26.08;13.50;;;;;;;9.54;72.11;99390.44;4992624;28;20042;-68
2021/09/21 07:08:39;;;;;;;21.63;11.55;;;;;;;9.53;71.86;99384.16;5010363;28;20041;-68
2021/09/21 07:11:05;;;;;;;20.15;11.98;;;;;;;9.59;72.11;99378.69;5009389;28;20104;-68
2021/09/21 07:13:30;;;;;;;18.40;11.00;;;;;;;9.70;72.44;99377.63;5010310;28;20034;-68
2021/09/21 07:15:55;;;;;;;15.50;10.00;;;;;;;9.81;72.48;99378.50;5014582;28;20030;-69
2021/09/21 07:18:21;;;;;;;18.17;10.60;;;;;;;9.92;72.64;99382.13;5010913;28;20026;-68
2021/09/21 07:20:46;;;;;;;21.63;12.23;;;;;;;9.96;71.68;99383.22;5010565;28;20030;-68
2021/09/21 07:23:12;;;;;;;17.40;11.10;;;;;;;9.91;72.03;99381.28;5010290;28;20034;-69
2021/09/21 07:25:37;;;;;;;16.90;10.80;;;;;;;9.95;72.36;99381.56;5009943;28;20813;-68
2021/09/21 07:28:03;;;;;;;19.27;11.60;;;;;;;10.00;72.11;99387.03;5008846;28;20115;-68
2021/09/21 07:30:30;;;;;;;16.55;10.52;;;;;;;10.07;71.90;99392.28;5000428;28;20081;-69
2021/09/21 07:32:55;;;;;;;17.30;11.35;;;;;;;10.13;71.56;99396.69;5001032;28;20034;-68
2021/09/21 07:35:21;;;;;;;16.63;10.38;;;;;;;10.20;72.22;99390.94;5008600;28;20366;-68
2021/09/21 07:37:46;;;;;;;14.77;9.38;;;;;;;10.27;72.18;99399.75;5007672;28;20037;-68
2021/09/21 07:40:12;;;;;;;16.35;9.82;;;;;;;10.30;71.67;99392.88;5015639;28;20405;-69
2021/09/21 07:42:38;;;;;;;17.23;10.02;;;;;;;10.36;72.13;99409.09;5011695;28;20126;-67
2021/09/21 07:45:06;;;;;;;17.30;11.05;;;;;;;10.46;72.41;99408.31;5008666;28;20029;-68
2021/09/21 07:47:31;;;;;;;15.13;8.10;;;;;;;10.52;71.99;99417.34;5008952;28;20465;-71
2021/09/21 07:49:59;;;;;;;13.75;9.80;;;;;;;10.53;72.24;99410.78;4991007;28;20026;-68
2021/09/21 07:52:25;;;;;;;15.65;11.13;;;;;;;10.58;72.13;99419.00;5009364;28;20025;-68
2021/09/21 07:54:50;;;;;;;15.27;10.27;;;;;;;10.65;71.63;99425.06;5009334;28;20029;-69
2021/09/21 07:57:16;;;;;;;17.17;12.32;;;;;;;10.65;71.52;99430.53;5009346;28;20104;-70
2021/09/21 07:59:42;;;;;;;17.33;10.60;;;;;;;10.61;71.20;99429.44;5008966;28;20029;-68
2021/09/21 08:02:09;;;;;;;16.58;11.00;;;;;;;10.51;71.11;99419.28;4990793;28;20125;-68
2021/09/21 08:04:35;;;;;;;15.90;9.98;;;;;;;10.52;71.67;99425.59;4991572;28;20092;-67
2021/09/21 08:07:00;;;;;;;15.77;10.23;;;;;;;10.50;71.56;99427.78;4991759;28;20069;-67
2021/09/21 08:09:26;;;;;;;18.85;11.45;;;;;;;10.49;71.39;99424.22;5008135;28;20033;-68
2021/09/21 08:11:51;;;;;;;15.65;10.75;;;;;;;10.50;71.22;99428.63;5009103;28;20048;-68
2021/09/21 08:14:16;;;;;;;14.95;10.35;;;;;;;10.50;71.18;99431.34;5008839;28;20026;-67
2021/09/21 08:16:42;;;;;;;15.13;9.38;;;;;;;10.51;71.49;99424.78;4991485;28;20063;-68
2021/09/21 08:19:07;;;;;;;16.45;10.27;;;;;;;10.54;72.22;99426.13;5007575;28;20057;-68
2021/09/21 08:21:33;;;;;;;14.05;10.35;;;;;;;10.62;72.40;99420.13;5006537;28;20030;-69
2021/09/21 08:23:58;;;;;;;16.55;10.73;;;;;;;10.74;71.40;99419.84;5008504;28;20360;-68
2021/09/21 08:26:24;;;;;;;14.40;9.20;;;;;;;10.86;71.72;99419.56;5011769;28;20044;-67
2021/09/21 08:28:49;;;;;;;11.27;7.68;;;;;;;10.93;71.30;99417.38;5010035;28;20041;-67
2021/09/21 08:31:15;;;;;;;14.90;9.20;;;;;;;11.01;71.64;99416.00;5011366;28;20038;-67
2021/09/21 08:33:40;;;;;;;16.88;9.90;;;;;;;11.09;71.18;99414.63;5013206;28;20076;-68
2021/09/21 08:36:06;;;;;;;16.77;10.15;;;;;;;11.21;70.82;99419.81;5015842;28;20034;-68
2021/09/21 08:38:31;;;;;;;13.98;9.18;;;;;;;11.32;71.07;99427.78;5012826;28;20034;-69
2021/09/21 08:40:56;;;;;;;14.95;10.18;;;;;;;11.47;70.93;99435.16;5013525;28;20029;-69
2021/09/21 08:43:22;;;;;;;15.60;9.80;;;;;;;11.61;70.58;99435.38;5009353;28;20033;-69
2021/09/21 08:45:47;;;;;;;13.63;8.32;;;;;;;11.74;70.54;99433.16;5010486;28;20347;-70
2021/09/21 08:48:13;;;;;;;12.38;7.88;;;;;;;11.85;69.65;99432.03;5011997;28;20037;-68
2021/09/21 08:50:38;;;;;;;14.68;9.48;;;;;;;11.88;69.66;99438.88;5013200;28;20037;-68
2021/09/21 08:53:04;;;;;;;12.93;7.68;;;;;;;11.89;68.26;99437.78;5011121;28;20535;-68
2021/09/21 08:55:29;;;;;;;16.52;10.40;;;;;;;11.94;69.18;99435.00;5012528;28;20056;-68
2021/09/21 08:57:57;;;;;;;14.23;8.57;;;;;;;12.05;68.91;99441.31;5013042;28;20030;-68
2021/09/21 09:00:28;;;;;;;12.90;8.80;;;;;;;12.09;67.43;99430.59;5012965;28;20470;-68
2021/09/21 09:03:11;;;;;;;18.33;9.63;;;;;;;12.15;67.37;99438.50;5011243;28;20046;-69
2021/09/21 09:05:51;;;;;;;21.23;11.73;;;;;;;12.20;67.56;99435.75;5011055;28;20046;-69
2021/09/21 09:08:29;;;;;;;12.65;7.47;;;;;;;12.25;66.13;99434.06;4995579;28;20030;-68
2021/09/21 09:11:09;;;;;;;11.73;6.57;;;;;;;12.31;66.74;99435.69;5012615;28;20056;-68
2021/09/21 09:13:34;;;;;;;15.02;8.88;;;;;;;12.33;65.39;99434.28;5011955;28;20497;-67
2021/09/21 09:15:59;;;;;;;12.40;6.78;;;;;;;12.33;65.48;99433.47;5010837;28;20022;-69
2021/09/21 09:18:27;;;;;;;11.35;6.07;;;;;;;12.38;64.43;99425.22;5007708;28;20117;-70
2021/09/21 09:20:53;;;;;;;9.32;4.90;;;;;;;12.36;63.25;99424.66;5011815;28;20449;-70
2021/09/21 09:23:19;;;;;;;8.45;5.45;;;;;;;12.35;63.53;99421.06;4992269;28;20410;-69
2021/09/21 09:25:47;;;;;;;12.93;7.10;;;;;;;12.45;63.27;99424.88;5010137;28;20033;-68
2021/09/21 09:28:23;;;;;;;11.30;7.20;;;;;;;12.52;62.69;99430.88;5014374;28;20042;-69
2021/09/21 09:30:52;;;;;;;13.10;7.25;;;;;;;12.60;63.57;99423.94;4993924;28;20026;-68
2021/09/21 09:33:18;;;;;;;7.95;5.22;;;;;;;12.69;62.69;99418.66;5010527;28;20069;-70
2021/09/21 09:35:45;;;;;;;8.43;5.15;;;;;;;12.74;62.77;99424.97;5011097;28;20036;-68
2021/09/21 09:38:22;;;;;;;8.82;5.88;;;;;;;12.76;60.70;99428.25;5010627;28;20045;-68
2021/09/21 09:40:53;;;;;;;15.90;8.80;;;;;;;12.80;59.93;99422.97;5009411;28;20492;-68
2021/09/21 09:43:22;;;;;;;8.63;5.50;;;;;;;12.81;59.64;99432.88;5011111;28;20040;-68
2021/09/21 09:45:51;;;;;;;8.15;5.10;;;;;;;12.80;59.57;99426.56;5010595;28;20038;-68
2021/09/21 09:48:20;;;;;;;9.65;5.88;;;;;;;12.91;60.34;99420.94;5009596;28;20129;-70
2021/09/21 09:50:50;;;;;;;10.23;5.93;;;;;;;13.05;60.41;99427.44;5017734;28;20034;-69
2021/09/21 09:53:24;;;;;;;11.68;6.13;;;;;;;13.11;59.75;99425.47;5011041;28;20441;-69
2021/09/21 09:55:54;;;;;;;9.20;6.50;;;;;;;13.20;59.74;99420.16;5010564;28;20046;-68
2021/09/21 09:58:21;;;;;;;15.65;7.68;;;;;;;13.28;60.20;99418.72;5010966;28;20041;-68
2021/09/21 10:00:49;;;;;;;11.80;7.18;;;;;;;13.29;59.93;99418.41;5011447;28;20034;-68
2021/09/21 10:03:14;;;;;;;9.35;5.50;;;;;;;13.37;59.59;99419.72;5009943;28;20030;-69
2021/09/21 10:05:42;;;;;;;8.40;5.50;;;;;;;13.45;59.39;99424.59;5012519;28;20054;-67
2021/09/21 10:08:10;;;;;;;8.40;5.57;;;;;;;13.53;60.29;99426.72;5010270;28;20037;-69
2021/09/21 10:10:38;;;;;;;9.15;5.35;;;;;;;13.63;60.10;99420.31;5010957;28;20109;-67
2021/09/21 10:13:17;;;;;;;8.18;5.60;;;;;;;13.67;57.48;99423.28;4992859;28;20030;-68
2021/09/21 10:15:43;;;;;;;7.80;5.68;;;;;;;13.65;57.43;99420.81;5010435;28;20454;-68
2021/09/21 10:18:18;;;;;;;7.68;5.18;;;;;;;13.67;57.62;99417.78;5009770;28;20088;-68
2021/09/21 10:20:45;;;;;;;9.38;5.43;;;;;;;13.66;57.60;99411.41;5010454;28;20026;-67
2021/09/21 10:23:11;;;;;;;8.40;5.22;;;;;;;13.75;57.27;99417.13;5009160;28;20109;-68
2021/09/21 10:25:42;;;;;;;8.38;5.43;;;;;;;13.82;57.09;99417.59;5006194;28;20363;-67
2021/09/21 10:28:15;;;;;;;11.82;5.78;;;;;;;13.90;56.34;99413.38;5008442;28;20022;-67
2021/09/21 10:30:53;;;;;;;9.20;4.80;;;;;;;14.00;57.22;99412.41;5008227;28;20084;-67
2021/09/21 10:33:19;;;;;;;8.57;5.07;;;;;;;14.06;56.33;99415.94;5007930;28;20037;-67
2021/09/21 10:35:49;;;;;;;8.98;5.93;;;;;;;13.99;54.16;99411.59;5006716;28;20071;-67
2021/09/21 10:38:14;;;;;;;9.48;5.55;;;;;;;13.94;54.56;99406.16;5004378;28;20370;-68
2021/09/21 10:40:47;;;;;;;7.28;5.55;;;;;;;14.01;55.80;99411.28;4989092;28;20026;-68
2021/09/21 10:43:22;;;;;;;8.60;5.40;;;;;;;14.03;53.20;99413.75;5006752;28;20024;-68
2021/09/21 10:45:52;;;;;;;9.38;6.05;;;;;;;14.05;53.66;99404.06;5007843;28;20033;-68
2021/09/21 10:48:22;;;;;;;10.32;5.00;;;;;;;14.10;55.51;99401.25;5008040;28;20022;-67
2021/09/21 10:50:58;;;;;;;5.80;4.10;;;;;;;14.22;54.89;99398.03;5008360;28;20026;-68
2021/09/21 10:53:24;;;;;;;8.38;5.20;;;;;;;14.29;54.07;99384.69;5009698;28;20033;-71
2021/09/21 10:56:06;;;;;;;6.15;4.43;;;;;;;14.36;53.83;99380.75;5009555;28;20034;-71
2021/09/21 10:58:32;;;;;;;4.68;3.58;;;;;;;14.44;53.11;99380.09;4990566;28;20065;-72
2021/09/21 11:00:58;;;;;;;7.22;3.80;;;;;;;14.51;53.70;99388.78;5005986;28;20559;-72
2021/09/21 11:03:26;;;;;;;5.00;3.33;;;;;;;14.56;52.72;99374.91;5005333;28;20065;-71
2021/09/21 11:05:53;;;;;;;6.07;4.00;;;;;;;14.63;54.02;99384.75;5012283;28;20176;-71
2021/09/21 11:08:25;;;;;;;5.93;4.30;;;;;;;14.74;53.59;99383.50;4994858;28;20358;-71
2021/09/21 11:10:54;;;;;;;5.38;3.63;;;;;;;14.85;53.70;99384.97;5010133;28;20025;-69
2021/09/21 11:13:23;;;;;;;6.63;3.40;;;;;;;14.86;53.93;99380.25;5009611;28;20026;-72
2021/09/21 11:15:49;;;;;;;5.60;3.65;;;;;;;14.89;54.28;99377.69;4990749;28;20037;-69
2021/09/21 11:18:17;;;;;;;5.25;3.85;;;;;;;14.89;54.06;99383.22;5008654;28;20033;-70
2021/09/21 11:20:47;;;;;;;6.20;4.00;;;;;;;14.84;53.84;99390.78;5009958;28;20030;-70
2021/09/21 11:23:14;;;;;;;7.15;3.50;;;;;;;14.80;53.99;99386.97;5011173;28;20116;-70
2021/09/21 11:25:39;;;;;;;5.75;3.60;;;;;;;14.72;52.57;99386.53;5012227;28;20026;-70
2021/09/21 11:28:06;;;;;;;7.25;3.65;;;;;;;14.61;52.21;99393.34;5008181;28;20088;-70
2021/09/21 11:30:32;;;;;;;8.70;7.40;;;;;;;14.51;53.61;99394.28;5012595;28;20029;-71
2021/09/21 11:32:58;;;;;;;7.55;4.22;;;;;;;14.48;53.86;99397.66;5015658;28;20076;-70
2021/09/21 11:35:23;;;;;;;6.55;3.80;;;;;;;14.36;54.40;99411.09;5008539;28;20036;-70
2021/09/21 11:37:52;;;;;;;9.13;4.30;;;;;;;14.24;54.82;99417.06;5028802;28;20485;-70
2021/09/21 11:40:29;;;;;;;9.13;5.23;;;;;;;14.08;55.58;99419.19;5018491;28;20025;-69
2021/09/21 11:42:56;;;;;;;7.57;5.20;;;;;;;13.89;56.45;99419.16;5009541;28;20275;-69
2021/09/21 11:45:22;;;;;;;13.32;9.52;;;;;;;13.76;57.02;99418.78;5004612;28;20034;-68
2021/09/21 11:47:49;;;;;;;8.75;7.05;;;;;;;13.75;57.36;99410.78;5016162;28;20505;-69
2021/09/21 11:50:20;;;;;;;9.45;5.60;;;;;;;13.69;58.05;99404.50;5009612;28;20477;-67
2021/09/21 11:52:52;;;;;;;6.55;5.07;;;;;;;13.55;58.51;99398.91;5008561;28;20033;-67
2021/09/21 11:55:19;;;;;;;8.20;6.70;;;;;;;13.45;59.24;99399.81;4991453;28;20078;-68
2021/09/21 11:57:46;;;;;;;7.25;5.60;;;;;;;13.42;59.43;99397.66;5017772;28;20033;-68
2021/09/21 12:00:36;;;;;;;7.18;6.47;;;;;;;13.38;59.73;99402.88;5016853;28;20026;-67
2021/09/21 12:03:01;;;;;;;7.10;6.40;;;;;;;13.33;59.86;99402.13;5008527;28;20038;-66
2021/09/21 12:05:29;;;;;;;7.63;5.50;;;;;;;13.25;60.58;99398.91;4990990;28;20050;-66
2021/09/21 12:07:55;;;;;;;9.57;6.65;;;;;;;13.17;60.80;99406.97;5008822;28;20021;-66
2021/09/21 12:10:24;;;;;;;15.68;10.38;;;;;;;13.11;61.06;99397.91;5013510;28;20109;-67
2021/09/21 12:13:20;;;;;;;10.75;6.65;;;;;;;13.09;61.51;99400.97;5008919;28;20076;-67
2021/09/21 12:15:50;;;;;;;8.50;5.60;;;;;;;13.17;61.59;99401.47;4981919;28;20448;-67
2021/09/21 12:18:17;;;;;;;11.90;7.65;;;;;;;13.22;61.76;99402.22;5009086;28;20026;-67
2021/09/21 12:20:51;;;;;;;12.30;8.43;;;;;;;13.20;61.75;99401.69;5009188;28;20363;-66
2021/09/21 12:23:22;;;;;;;12.30;7.53;;;;;;;13.25;61.95;99392.53;5009122;28;20034;-67
2021/09/21 12:25:52;;;;;;;11.63;8.45;;;;;;;13.31;62.03;99407.09;5008830;28;20072;-69
2021/09/21 12:28:26;;;;;;;10.48;6.35;;;;;;;13.21;62.26;99405.28;5009024;28;20072;-67
2021/09/21 12:30:52;;;;;;;14.30;8.27;;;;;;;13.07;62.52;99411.47;5008307;28;20030;-67
2021/09/21 12:33:18;;;;;;;9.70;6.63;;;;;;;13.00;62.67;99412.91;5008273;28;20109;-67
2021/09/21 12:35:46;;;;;;;9.85;6.72;;;;;;;12.87;63.32;99415.22;5009018;28;20058;-66
2021/09/21 12:38:15;;;;;;;11.30;7.47;;;;;;;12.80;63.17;99420.22;5009128;28;20121;-67
2021/09/21 12:40:55;;;;;;;10.05;6.00;;;;;;;12.71;64.17;99425.53;5009671;28;20029;-66
2021/09/21 12:43:27;;;;;;;9.13;6.70;;;;;;;12.62;64.74;99436.34;5009500;28;20053;-68
2021/09/21 12:45:56;;;;;;;9.88;6.35;;;;;;;12.56;64.82;99431.13;5012973;28;20034;-66
2021/09/21 12:48:33;;;;;;;9.77;5.75;;;;;;;12.53;64.48;99432.53;5008758;28;20034;-68
2021/09/21 12:51:01;;;;;;;8.27;5.30;;;;;;;12.50;65.68;99433.91;5009358;28;20034;-69
2021/09/21 12:53:27;;;;;;;11.13;5.97;;;;;;;12.33;65.82;99436.22;5009271;28;20104;-67
2021/09/21 12:55:59;;;;;;;7.30;5.15;;;;;;;12.25;66.26;99436.81;5008744;28;20030;-68
2021/09/21 12:58:34;;;;;;;10.18;5.72;;;;;;;12.18;66.25;99437.94;5019145;28;20021;-69
2021/09/21 13:01:01;;;;;;;7.57;5.13;;;;;;;12.21;66.56;99420.88;5014719;28;20493;-67
2021/09/21 13:03:26;;;;;;;8.25;6.13;;;;;;;12.21;67.08;99426.38;5012663;28;20377;-68
2021/09/21 13:05:52;;;;;;;9.52;6.75;;;;;;;12.22;66.97;99424.47;5009169;28;20105;-68
2021/09/21 13:08:19;;;;;;;10.68;6.82;;;;;;;12.21;67.52;99414.59;5009366;28;20541;-67
2021/09/21 13:10:45;;;;;;;10.75;6.35;;;;;;;12.30;68.46;99404.59;5004346;28;20087;-69
2021/09/21 13:13:11;;;;;;;8.60;5.72;;;;;;;12.37;67.40;99409.81;5011735;28;20566;-67
2021/09/21 13:15:38;;;;;;;9.50;6.68;;;;;;;12.40;67.56;99409.25;5010507;28;20116;-67
2021/09/21 13:18:04;;;;;;;10.43;6.25;;;;;;;12.46;68.25;99399.00;5020702;28;20076;-67
2021/09/21 13:20:32;;;;;;;8.18;6.00;;;;;;;12.42;68.15;99398.78;5011814;28;20034;-71
2021/09/21 13:22:58;;;;;;;6.82;5.38;;;;;;;12.38;68.12;99402.34;5010644;28;20042;-70
2021/09/21 13:25:25;;;;;;;6.53;5.22;;;;;;;12.37;68.18;99393.31;5010496;28;20037;-67
2021/09/21 13:27:51;;;;;;;5.80;4.45;;;;;;;12.38;68.14;99394.09;5017326;28;20045;-67
2021/09/21 13:30:17;;;;;;;7.03;5.20;;;;;;;12.35;67.69;99387.25;5018873;28;20091;-67
2021/09/21 13:32:43;;;;;;;7.82;5.80;;;;;;;12.32;67.91;99382.31;5023313;28;20033;-68
2021/09/21 13:35:11;;;;;;;8.25;4.82;;;;;;;12.25;67.80;99385.38;5010206;28;20038;-68
2021/09/21 13:37:41;;;;;;;5.75;3.83;;;;;;;12.21;67.75;99382.38;5010839;28;20033;-68
2021/09/21 13:40:08;;;;;;;6.80;4.55;;;;;;;12.18;68.37;99385.69;5012361;28;20030;-69
2021/09/21 13:42:34;;;;;;;7.03;4.03;;;;;;;12.19;68.10;99389.28;5011902;28;20695;-70
2021/09/21 13:45:00;;;;;;;9.80;5.65;;;;;;;12.24;68.76;99378.22;5011628;28;20080;-69
2021/09/21 13:47:25;;;;;;;7.97;4.85;;;;;;;12.27;69.01;99377.66;5012296;28;20456;-68
2021/09/21 13:49:51;;;;;;;6.45;4.13;;;;;;;12.33;68.60;99371.03;5012246;28;20518;-69
2021/09/21 13:52:20;;;;;;;6.18;4.45;;;;;;;12.38;68.79;99372.09;5011795;28;20625;-69
2021/09/21 13:54:45;;;;;;;7.22;4.05;;;;;;;12.43;68.38;99372.06;4994601;28;20030;-69
2021/09/21 13:57:11;;;;;;;7.38;4.20;;;;;;;12.48;68.64;99370.09;4994253;28;20022;-68
2021/09/21 13:59:36;;;;;;;7.35;4.25;;;;;;;12.56;68.69;99376.94;5011380;28;20046;-68
2021/09/21 14:02:06;;;;;;;7.07;4.40;;;;;;;12.56;68.74;99368.69;5012001;28;20065;-71
2021/09/21 14:04:33;;;;;;;7.72;4.90;;;;;;;12.60;68.75;99372.50;5011515;28;20157;-69
2021/09/21 14:06:59;;;;;;;6.82;4.32;;;;;;;12.70;68.49;99370.75;5010841;28;20030;-68
2021/09/21 14:09:28;;;;;;;10.43;5.07;;;;;;;12.83;68.76;99364.59;5011938;28;20034;-68
2021/09/21 14:11:54;;;;;;;7.22;4.80;;;;;;;12.88;68.73;99366.47;5011463;28;20026;-67
2021/09/21 14:14:21;;;;;;;8.68;5.50;;;;;;;12.89;68.30;99357.09;4997798;28;20037;-69
2021/09/21 14:16:46;;;;;;;10.95;6.15;;;;;;;12.91;68.37;99363.13;5020901;28;20033;-68
2021/09/21 14:19:12;;;;;;;9.45;5.47;;;;;;;12.91;68.37;99369.47;5011630;28;20458;-70
2021/09/21 14:21:38;;;;;;;11.63;6.53;;;;;;;12.97;68.17;99370.25;5004091;28;20386;-70
2021/09/21 14:24:04;;;;;;;10.65;6.13;;;;;;;13.00;68.24;99361.41;5010328;28;20026;-69
2021/09/21 14:26:29;;;;;;;11.00;6.50;;;;;;;13.03;68.46;99358.06;5010175;28;20363;-69
2021/09/21 14:28:55;;;;;;;12.20;6.32;;;;;;;13.02;68.34;99364.69;5010566;28;20032;-69
2021/09/21 14:31:20;;;;;;;12.45;6.70;;;;;;;13.03;68.15;99362.78;5010174;28;20034;-68
2021/09/21 14:33:46;;;;;;;14.20;8.15;;;;;;;13.10;68.49;99364.06;5010705;28;20508;-68
2021/09/21 14:36:12;;;;;;;13.07;6.97;;;;;;;13.14;68.35;99363.47;5010390;28;20041;-68
2021/09/21 14:38:37;;;;;;;12.48;6.88;;;;;;;13.21;68.32;99358.47;5003996;28;20083;-69
2021/09/21 14:41:04;;;;;;;11.27;7.15;;;;;;;13.20;68.37;99374.16;5007055;28;20042;-69
2021/09/21 14:43:34;;;;;;;11.90;7.95;;;;;;;13.18;68.23;99365.34;5007337;28;20531;-69
2021/09/21 14:46:00;;;;;;;11.02;7.63;;;;;;;13.14;68.07;99364.28;5006745;28;20073;-70
2021/09/21 14:48:26;;;;;;;11.57;6.68;;;;;;;13.12;68.08;99358.25;5006754;28;20029;-69
2021/09/21 14:50:51;;;;;;;11.27;6.50;;;;;;;13.10;67.56;99363.22;5005497;28;20033;-69
2021/09/21 14:53:17;;;;;;;10.77;5.38;;;;;;;13.04;67.45;99358.91;4988443;28;20478;-69
2021/09/21 14:55:42;;;;;;;8.85;5.70;;;;;;;13.02;67.34;99363.88;5014377;28;20037;-70
2021/09/21 14:58:07;;;;;;;11.85;5.65;;;;;;;13.03;67.46;99358.06;5011920;28;20069;-69
2021/09/21 15:00:33;;;;;;;11.60;7.38;;;;;;;13.00;67.31;99355.91;5008405;28;20025;-70
2021/09/21 15:02:59;;;;;;;12.27;8.60;;;;;;;12.95;66.82;99355.94;5005101;28;20083;-68
2021/09/21 15:05:25;;;;;;;11.95;6.95;;;;;;;12.89;66.97;99355.19;4997764;28;20054;-69
2021/09/21 15:07:50;;;;;;;13.57;8.20;;;;;;;12.85;67.01;99359.63;5007615;28;20065;-69
2021/09/21 15:10:16;;;;;;;11.60;7.57;;;;;;;12.88;67.24;99352.69;5006773;28;20108;-69
2021/09/21 15:12:41;;;;;;;14.75;7.20;;;;;;;12.86;66.89;99357.69;5004199;28;20028;-69
2021/09/21 15:15:09;;;;;;;14.85;7.10;;;;;;;12.85;66.94;99362.38;5006983;28;20034;-66
2021/09/21 15:17:39;;;;;;;13.40;7.10;;;;;;;12.85;67.10;99358.78;5008367;28;20017;-67
2021/09/21 15:20:07;;;;;;;9.35;6.10;;;;;;;12.78;66.83;99362.72;5004979;28;20512;-67
2021/09/21 15:22:33;;;;;;;12.05;6.70;;;;;;;12.73;66.56;99357.25;5007437;28;20048;-67
2021/09/21 15:24:59;;;;;;;13.82;6.93;;;;;;;12.73;66.89;99367.44;5009325;28;20029;-66
2021/09/21 15:27:24;;;;;;;22.02;12.50;;;;;;;12.71;66.77;99355.88;5003147;28;20041;-67
2021/09/21 15:29:50;;;;;;;17.52;11.73;;;;;;;12.70;66.78;99357.81;5007287;28;20029;-67
2021/09/21 15:32:15;;;;;;;16.10;9.15;;;;;;;12.68;66.53;99354.53;5009098;28;20038;-67
2021/09/21 15:34:41;;;;;;;14.15;7.03;;;;;;;12.70;66.65;99357.00;5015909;28;20037;-66
2021/09/21 15:37:07;;;;;;;11.73;6.45;;;;;;;12.71;66.40;99364.13;5010724;28;20032;-67
2021/09/21 15:39:32;;;;;;;15.60;8.45;;;;;;;12.68;66.63;99360.03;5009200;28;20113;-68
2021/09/21 15:41:59;;;;;;;20.05;9.55;;;;;;;12.67;66.25;99352.91;5006479;28;20466;-67
2021/09/21 15:44:28;;;;;;;17.38;9.73;;;;;;;12.67;66.07;99358.41;5008653;28;20029;-67
2021/09/21 15:46:56;;;;;;;21.75;11.52;;;;;;;12.65;66.48;99350.41;5009803;28;20024;-68
2021/09/21 15:49:23;;;;;;;21.88;13.32;;;;;;;12.64;65.96;99357.03;5007866;28;20033;-67
2021/09/21 15:51:49;;;;;;;25.02;13.57;;;;;;;12.62;66.15;99352.94;5006128;28;20041;-68
2021/09/21 15:54:16;;;;;;;18.83;11.20;;;;;;;12.61;66.46;99356.78;5007195;28;20378;-68
2021/09/21 15:56:42;;;;;;;25.00;12.98;;;;;;;12.54;66.04;99348.88;5004060;28;20021;-67
2021/09/21 15:59:07;;;;;;;43.55;20.98;;;;;;;12.52;65.90;99362.09;4994184;28;20040;-68
2021/09/21 16:01:33;;;;;;;71.53;31.92;;;;;;;12.51;66.17;99363.22;5003596;28;20026;-67
2021/09/21 16:04:00;;;;;;;49.42;24.77;;;;;;;12.50;66.51;99372.56;5007408;28;20889;-68
2021/09/21 16:06:25;;;;;;;39.17;18.45;;;;;;;12.46;65.91;99363.25;5005691;28;20026;-67
2021/09/21 16:08:53;;;;;;;37.22;18.33;;;;;;;12.43;66.00;99367.38;5008045;28;20037;-67
2021/09/21 16:11:19;;;;;;;31.15;15.23;;;;;;;12.42;66.33;99367.66;5007784;28;20054;-68
2021/09/21 16:13:45;;;;;;;23.10;12.98;;;;;;;12.39;66.18;99368.25;5008513;28;20073;-67
2021/09/21 16:16:12;;;;;;;23.13;13.20;;;;;;;12.32;66.55;99365.81;5007796;28;20105;-68
2021/09/21 16:18:38;;;;;;;20.58;11.80;;;;;;;12.28;66.47;99360.06;5008362;28;20033;-67
2021/09/21 16:21:06;;;;;;;17.63;10.40;;;;;;;12.22;66.56;99366.72;5010950;28;20041;-67
2021/09/21 16:23:32;;;;;;;20.13;12.25;;;;;;;12.20;66.64;99363.44;5010221;28;20034;-67
2021/09/21 16:25:57;;;;;;;29.92;17.55;;;;;;;12.19;66.58;99367.28;5010788;28;20385;-68
2021/09/21 16:28:23;;;;;;;37.00;20.17;;;;;;;12.20;66.44;99366.19;5012300;28;20026;-67
2021/09/21 16:30:50;;;;;;;39.40;21.75;;;;;;;12.20;66.88;99372.50;5007760;28;20504;-67